Time;durP1;ratioP1;P1;durP2;ratioP2;P2;SDS_P1;SDS_P2;PMS_P1;PMS_P2;Temp;Humidity;BMP_temperature;BMP_pressure;BME280_temperature;BME280_humidity;BME280_pressure;Samples;Min_cycle;Max_cycle;Signal;HPM_P1;HPM_P2
2020/12/30 00:02:11;;;;;;;0.63;0.63;;;1.80;99.90;;;;;;5025471;28;20242;-79
2020/12/30 00:04:37;;;;;;;0.80;0.60;;;1.80;99.90;;;;;;5028590;28;20210;-80
2020/12/30 00:07:03;;;;;;;0.60;0.60;;;1.90;99.90;;;;;;5028769;28;20183;-79
2020/12/30 00:09:28;;;;;;;0.90;0.70;;;2.00;99.90;;;;;;5028846;28;20183;-82
2020/12/30 00:11:54;;;;;;;1.80;1.03;;;1.90;99.90;;;;;;5030770;28;20206;-81
2020/12/30 00:14:19;;;;;;;0.53;0.53;;;1.90;99.90;;;;;;5029967;28;20807;-79
2020/12/30 00:16:45;;;;;;;0.93;0.87;;;1.80;99.90;;;;;;5025792;28;20696;-80
2020/12/30 00:19:11;;;;;;;0.70;0.70;;;1.80;99.90;;;;;;5031853;28;20253;-81
2020/12/30 00:21:38;;;;;;;1.30;1.20;;;1.70;99.90;;;;;;5030940;28;20818;-81
2020/12/30 00:24:03;;;;;;;1.60;1.10;;;1.70;99.90;;;;;;5030501;28;20793;-80
2020/12/30 00:26:29;;;;;;;0.80;0.60;;;1.60;99.90;;;;;;5025532;28;20187;-79
2020/12/30 00:28:55;;;;;;;1.90;0.80;;;1.70;99.90;;;;;;5027507;28;20190;-80
2020/12/30 00:31:20;;;;;;;0.60;0.60;;;1.70;99.90;;;;;;5025507;28;20790;-79
2020/12/30 00:33:46;;;;;;;0.77;0.70;;;1.70;99.90;;;;;;5024840;28;20233;-80
2020/12/30 00:36:12;;;;;;;1.10;1.00;;;1.80;99.90;;;;;;5023374;28;20214;-80
2020/12/30 00:38:37;;;;;;;1.27;0.63;;;1.70;99.90;;;;;;5024570;28;20758;-81
2020/12/30 00:41:03;;;;;;;0.77;0.77;;;1.60;99.90;;;;;;5023782;28;20190;-82
2020/12/30 00:43:28;;;;;;;1.30;1.17;;;1.60;99.90;;;;;;5024893;28;20587;-82
2020/12/30 00:45:54;;;;;;;2.30;1.23;;;1.60;99.90;;;;;;5026217;28;20191;-79
2020/12/30 00:48:20;;;;;;;0.97;0.53;;;1.60;99.90;;;;;;5023345;28;20186;-79
2020/12/30 00:50:45;;;;;;;1.00;0.60;;;1.50;99.90;;;;;;5024409;28;20187;-80
2020/12/30 00:53:11;;;;;;;1.70;0.97;;;1.50;99.90;;;;;;5024043;28;20207;-79
2020/12/30 00:55:36;;;;;;;0.90;0.67;;;1.40;99.90;;;;;;5026191;28;20245;-79
2020/12/30 00:58:02;;;;;;;1.03;0.73;;;1.40;99.90;;;;;;5026588;28;20274;-82
2020/12/30 01:00:27;;;;;;;0.57;0.57;;;1.40;99.90;;;;;;5027253;28;20211;-81
2020/12/30 01:02:53;;;;;;;0.70;0.70;;;1.30;99.90;;;;;;5024012;28;20215;-79
2020/12/30 01:05:18;;;;;;;1.23;1.13;;;1.20;99.90;;;;;;5023804;28;20190;-80
2020/12/30 01:07:44;;;;;;;0.67;0.43;;;1.20;99.90;;;;;;5024731;28;20205;-80
2020/12/30 01:10:09;;;;;;;0.50;0.50;;;1.20;99.90;;;;;;5024890;28;20596;-81
2020/12/30 01:12:38;;;;;;;0.60;0.50;;;1.30;99.90;;;;;;5024102;28;21196;-81
2020/12/30 01:15:05;;;;;;;0.50;0.50;;;1.40;99.90;;;;;;5023885;28;20871;-82
2020/12/30 01:17:30;;;;;;;0.70;0.50;;;1.40;99.90;;;;;;5025204;28;20175;-79
2020/12/30 01:19:56;;;;;;;0.73;0.50;;;1.50;99.90;;;;;;5023102;28;20268;-79
2020/12/30 01:22:21;;;;;;;0.70;0.70;;;1.50;99.90;;;;;;5023381;28;20266;-80
2020/12/30 01:24:47;;;;;;;0.77;0.77;;;1.60;99.90;;;;;;5023723;28;20190;-82
2020/12/30 01:27:12;;;;;;;0.80;0.67;;;1.70;99.90;;;;;;5022985;28;20191;-79
2020/12/30 01:29:38;;;;;;;0.57;0.43;;;1.80;99.90;;;;;;5023323;28;20190;-79
2020/12/30 01:32:03;;;;;;;0.50;0.50;;;1.90;99.90;;;;;;5025717;28;21296;-82
2020/12/30 01:34:29;;;;;;;0.50;0.50;;;1.90;99.90;;;;;;5025641;28;20198;-80
2020/12/30 01:36:56;;;;;;;0.70;0.70;;;2.00;99.90;;;;;;5024919;28;20195;-80
2020/12/30 01:39:21;;;;;;;0.40;0.40;;;2.10;99.90;;;;;;5026955;28;20238;-80
2020/12/30 01:41:47;;;;;;;1.07;0.87;;;2.10;99.90;;;;;;5026268;28;20707;-81
2020/12/30 01:44:13;;;;;;;1.00;0.90;;;2.10;99.90;;;;;;5023781;28;20191;-80
2020/12/30 01:46:46;;;;;;;1.70;0.83;;;2.10;99.90;;;;;;5023962;28;21102;-80
2020/12/30 01:49:22;;;;;;;0.43;0.43;;;2.10;99.90;;;;;;5023609;28;20780;-81
2020/12/30 01:51:51;;;;;;;3.40;1.13;;;2.10;99.90;;;;;;5024940;28;20186;-80
2020/12/30 01:54:17;;;;;;;0.90;0.57;;;2.10;99.90;;;;;;5026031;28;20182;-82
2020/12/30 01:56:43;;;;;;;1.90;0.70;;;2.00;99.90;;;;;;5032560;28;20210;-81
2020/12/30 01:59:11;;;;;;;0.67;0.67;;;1.90;99.90;;;;;;5034317;28;20179;-84
2020/12/30 02:01:38;;;;;;;0.60;0.60;;;1.90;99.90;;;;;;5036034;28;20193;-82
2020/12/30 02:04:05;;;;;;;1.17;1.00;;;1.90;99.90;;;;;;5028598;28;20925;-81
2020/12/30 02:06:32;;;;;;;0.70;0.50;;;1.80;99.90;;;;;;5025131;28;20187;-82
2020/12/30 02:08:58;;;;;;;0.40;0.33;;;1.80;99.90;;;;;;5026820;28;20201;-80
2020/12/30 02:11:26;;;;;;;1.03;0.90;;;1.70;99.90;;;;;;5028444;28;20186;-83
2020/12/30 02:14:01;;;;;;;0.90;0.90;;;1.70;99.90;;;;;;5028069;28;20209;-79
2020/12/30 02:16:27;;;;;;;0.67;0.67;;;1.80;99.90;;;;;;5026641;28;20214;-82
2020/12/30 02:18:53;;;;;;;0.93;0.73;;;1.80;99.90;;;;;;5026566;28;20249;-82
2020/12/30 02:21:19;;;;;;;0.43;0.43;;;1.80;99.90;;;;;;5028251;28;21182;-81
2020/12/30 02:23:46;;;;;;;0.63;0.60;;;1.80;99.90;;;;;;5026955;28;20223;-81
2020/12/30 02:26:12;;;;;;;0.97;0.70;;;1.70;99.90;;;;;;5033040;28;20205;-82
2020/12/30 02:28:38;;;;;;;0.50;0.50;;;1.80;99.90;;;;;;5028597;28;20187;-83
2020/12/30 02:31:03;;;;;;;0.77;0.60;;;1.80;99.90;;;;;;5040437;28;20186;-80
2020/12/30 02:33:29;;;;;;;0.50;0.50;;;2.00;99.90;;;;;;5028833;28;20238;-79
2020/12/30 02:35:55;;;;;;;0.70;0.70;;;2.00;99.90;;;;;;5026654;28;20229;-79
2020/12/30 02:38:23;;;;;;;0.97;0.97;;;1.90;99.90;;;;;;5026368;28;20193;-81
2020/12/30 02:40:49;;;;;;;1.00;1.00;;;2.00;99.90;;;;;;5028520;28;20187;-81
2020/12/30 02:43:15;;;;;;;0.80;0.80;;;1.90;99.90;;;;;;5042209;28;20568;-81
2020/12/30 02:45:41;;;;;;;1.90;1.03;;;1.90;99.90;;;;;;5022127;28;20183;-82
2020/12/30 02:48:07;;;;;;;0.90;0.90;;;1.80;99.90;;;;;;5017277;28;20207;-83
2020/12/30 02:50:33;;;;;;;1.30;1.03;;;1.70;99.90;;;;;;5044055;28;20295;-81
2020/12/30 02:52:58;;;;;;;1.07;1.00;;;1.60;99.90;;;;;;5032402;28;20210;-80
2020/12/30 02:55:24;;;;;;;0.63;0.63;;;1.50;99.90;;;;;;5028997;28;20210;-80
2020/12/30 02:57:50;;;;;;;1.00;0.93;;;1.40;99.90;;;;;;5028489;28;20194;-79
2020/12/30 03:00:15;;;;;;;0.70;0.70;;;1.30;99.90;;;;;;5026579;28;20210;-80
2020/12/30 03:02:41;;;;;;;0.80;0.77;;;1.40;99.90;;;;;;5029565;28;20553;-80
2020/12/30 03:05:06;;;;;;;0.83;0.70;;;1.30;99.90;;;;;;5031768;28;20769;-80
2020/12/30 03:07:32;;;;;;;1.33;0.80;;;1.20;99.90;;;;;;5031442;28;20570;-79
2020/12/30 03:09:58;;;;;;;0.97;0.67;;;1.10;99.90;;;;;;5025968;28;20205;-78
2020/12/30 03:12:23;;;;;;;1.00;0.90;;;1.10;99.90;;;;;;5026556;28;20271;-80
2020/12/30 03:14:49;;;;;;;0.73;0.70;;;1.00;99.90;;;;;;5024820;28;20191;-81
2020/12/30 03:17:14;;;;;;;0.87;0.87;;;1.00;99.90;;;;;;5025318;28;20571;-81
2020/12/30 03:19:40;;;;;;;1.23;1.10;;;0.90;99.90;;;;;;5025578;28;20310;-82
2020/12/30 03:22:05;;;;;;;1.27;0.90;;;0.80;99.90;;;;;;5022369;28;20240;-82
2020/12/30 03:24:31;;;;;;;1.53;1.00;;;0.70;99.90;;;;;;5025519;28;20248;-80
2020/12/30 03:26:57;;;;;;;1.07;1.00;;;0.60;99.90;;;;;;5025330;28;20202;-81
2020/12/30 03:29:23;;;;;;;1.10;0.80;;;0.60;99.90;;;;;;5025176;28;20190;-82
2020/12/30 03:31:48;;;;;;;1.30;1.20;;;0.50;99.90;;;;;;5025400;28;20186;-78
2020/12/30 03:34:14;;;;;;;0.70;0.70;;;0.60;99.90;;;;;;5026464;28;20683;-81
2020/12/30 03:36:40;;;;;;;2.30;1.07;;;0.60;99.90;;;;;;5024662;28;20682;-79
2020/12/30 03:39:06;;;;;;;1.10;1.00;;;0.50;99.90;;;;;;5025145;28;20202;-79
2020/12/30 03:41:31;;;;;;;1.10;1.00;;;0.50;99.90;;;;;;5025223;28;20191;-78
2020/12/30 03:43:57;;;;;;;1.07;0.77;;;0.70;99.90;;;;;;5030106;28;20191;-79
2020/12/30 03:46:22;;;;;;;0.63;0.63;;;0.70;99.90;;;;;;5030663;28;20219;-83
2020/12/30 03:48:48;;;;;;;1.87;1.17;;;0.70;99.90;;;;;;5025841;28;20198;-80
2020/12/30 03:51:14;;;;;;;0.53;0.53;;;0.60;99.90;;;;;;5025336;28;20664;-84
2020/12/30 03:53:39;;;;;;;1.00;0.90;;;0.70;99.90;;;;;;5026692;28;20568;-80
2020/12/30 03:56:05;;;;;;;0.60;0.60;;;0.70;99.90;;;;;;5024820;28;20928;-81
2020/12/30 03:58:30;;;;;;;0.43;0.43;;;0.60;99.90;;;;;;5028513;28;20551;-81
2020/12/30 04:00:56;;;;;;;0.90;0.80;;;0.60;99.90;;;;;;5025602;28;20198;-84
2020/12/30 04:03:21;;;;;;;0.80;0.80;;;0.80;99.90;;;;;;5026165;28;21175;-81
2020/12/30 04:05:50;;;;;;;1.87;1.20;;;0.90;99.90;;;;;;5026509;28;20615;-80
2020/12/30 04:08:15;;;;;;;0.83;0.83;;;0.90;99.90;;;;;;5024902;28;20191;-83
2020/12/30 04:10:41;;;;;;;0.90;0.80;;;0.90;99.90;;;;;;5028011;28;20197;-82
2020/12/30 04:13:06;;;;;;;1.83;1.10;;;0.80;99.90;;;;;;5028047;28;20242;-80
2020/12/30 04:15:32;;;;;;;1.00;0.90;;;0.70;99.90;;;;;;5026102;28;20237;-82
2020/12/30 04:17:58;;;;;;;1.30;1.20;;;0.70;99.90;;;;;;5027023;28;20191;-81
2020/12/30 04:20:23;;;;;;;1.83;1.57;;;0.60;99.90;;;;;;5032743;28;20179;-78
2020/12/30 04:22:49;;;;;;;2.13;1.67;;;0.40;99.90;;;;;;5025706;28;20234;-78
2020/12/30 04:25:14;;;;;;;1.73;1.40;;;0.40;99.90;;;;;;5024301;28;20200;-79
2020/12/30 04:27:40;;;;;;;1.83;1.50;;;0.30;99.90;;;;;;5024385;28;20286;-79
2020/12/30 04:30:05;;;;;;;1.90;1.70;;;0.30;99.90;;;;;;5024427;28;20199;-79
2020/12/30 04:32:31;;;;;;;1.87;1.70;;;0.50;99.90;;;;;;5025521;28;20206;-82
2020/12/30 04:34:56;;;;;;;1.10;0.90;;;0.40;99.90;;;;;;5023483;28;20686;-81
2020/12/30 04:37:22;;;;;;;0.83;0.70;;;0.30;99.90;;;;;;5024641;28;20187;-80
2020/12/30 04:39:47;;;;;;;0.67;0.67;;;0.20;99.90;;;;;;5025304;28;20186;-79
2020/12/30 04:42:21;;;;;;;1.10;0.80;;;0.10;99.90;;;;;;5023930;28;20264;-79
2020/12/30 04:44:51;;;;;;;1.53;1.00;;;0.00;99.90;;;;;;5026480;28;20216;-82
2020/12/30 04:47:17;;;;;;;0.70;0.70;;;0.00;99.90;;;;;;5028836;28;20191;-79
2020/12/30 04:49:43;;;;;;;0.73;0.73;;;-0.10;99.90;;;;;;5023852;28;20293;-80
2020/12/30 04:52:13;;;;;;;4.50;1.47;;;-0.10;99.90;;;;;;5025355;28;20290;-80
2020/12/30 04:54:39;;;;;;;1.27;1.10;;;-0.10;99.90;;;;;;5041363;23;20199;-76
2020/12/30 04:57:05;;;;;;;1.40;1.20;;;-0.10;99.90;;;;;;5039149;28;20845;-76
2020/12/30 04:59:39;;;;;;;1.63;1.03;;;-0.10;99.90;;;;;;5043517;28;20264;-77
2020/12/30 05:02:06;;;;;;;0.90;0.80;;;-0.20;99.90;;;;;;5043540;28;20174;-76
2020/12/30 05:04:32;;;;;;;1.60;1.00;;;-0.20;99.90;;;;;;5041466;28;20185;-76
2020/12/30 05:07:04;;;;;;;0.87;0.87;;;-0.30;99.90;;;;;;5033979;28;20186;-76
2020/12/30 05:09:32;;;;;;;1.77;1.50;;;-0.30;99.90;;;;;;5034679;28;20182;-76
2020/12/30 05:11:57;;;;;;;1.20;0.60;;;-0.30;99.90;;;;;;5034370;28;20174;-76
2020/12/30 05:14:23;;;;;;;1.13;0.80;;;-0.30;99.90;;;;;;5028788;28;20568;-77
2020/12/30 05:16:49;;;;;;;2.23;2.03;;;-0.20;99.90;;;;;;5032831;28;20214;-75
2020/12/30 05:19:15;;;;;;;1.17;1.07;;;-0.30;99.90;;;;;;5033273;28;20533;-76
2020/12/30 05:21:40;;;;;;;0.90;0.77;;;-0.30;99.90;;;;;;5032051;28;20212;-77
2020/12/30 05:24:08;;;;;;;1.70;1.30;;;-0.30;99.90;;;;;;5033670;28;20182;-77
2020/12/30 05:26:35;;;;;;;0.80;0.80;;;-0.30;99.90;;;;;;5032438;28;20586;-77
2020/12/30 05:29:03;;;;;;;1.23;0.93;;;-0.10;99.90;;;;;;5038988;28;20855;-77
2020/12/30 05:31:29;;;;;;;1.23;0.97;;;0.00;99.90;;;;;;5038315;28;20218;-76
2020/12/30 05:33:55;;;;;;;0.83;0.60;;;0.00;99.90;;;;;;5052847;28;20297;-77
2020/12/30 05:36:25;;;;;;;0.80;0.80;;;0.20;99.90;;;;;;5038312;28;20206;-77
2020/12/30 05:38:50;;;;;;;1.20;0.80;;;0.60;99.90;;;;;;5037922;28;20198;-77
2020/12/30 05:41:22;;;;;;;0.57;0.57;;;0.70;99.90;;;;;;5038576;28;20218;-76
2020/12/30 05:43:48;;;;;;;0.93;0.93;;;0.60;99.90;;;;;;5038922;28;20190;-76
2020/12/30 05:46:27;;;;;;;0.97;0.83;;;0.50;99.90;;;;;;5036734;28;20252;-77
2020/12/30 05:48:53;;;;;;;1.20;1.10;;;0.40;99.90;;;;;;5036460;28;20209;-76
2020/12/30 05:51:26;;;;;;;1.03;0.93;;;0.20;99.90;;;;;;5038312;28;21122;-77
2020/12/30 05:54:08;;;;;;;6.43;1.80;;;0.20;99.90;;;;;;5038395;28;20558;-75
2020/12/30 05:56:36;;;;;;;1.00;0.80;;;0.10;99.90;;;;;;5033668;28;20579;-76
2020/12/30 05:59:03;;;;;;;1.47;1.27;;;0.00;99.90;;;;;;5034165;28;20682;-76
2020/12/30 06:01:28;;;;;;;1.20;0.90;;;0.00;99.90;;;;;;5035625;28;20258;-78
2020/12/30 06:03:55;;;;;;;1.47;1.00;;;-0.10;99.90;;;;;;5053395;28;20266;-77
2020/12/30 06:06:22;;;;;;;0.87;0.77;;;-0.10;99.90;;;;;;5052293;28;20214;-77
2020/12/30 06:08:49;;;;;;;1.00;0.77;;;0.00;99.90;;;;;;5037017;28;20289;-77
2020/12/30 06:11:23;;;;;;;1.40;1.30;;;0.00;99.90;;;;;;5037769;28;20178;-77
2020/12/30 06:13:52;;;;;;;1.20;0.90;;;0.10;99.90;;;;;;5028246;28;20625;-78
2020/12/30 06:16:29;;;;;;;1.20;0.90;;;0.10;99.90;;;;;;5052029;28;20293;-77
2020/12/30 06:18:56;;;;;;;0.97;0.87;;;0.10;99.90;;;;;;5036723;28;20605;-76
2020/12/30 06:21:24;;;;;;;1.90;1.10;;;0.10;99.90;;;;;;5037601;28;20225;-77
2020/12/30 06:23:55;;;;;;;0.90;0.90;;;0.20;99.90;;;;;;5036253;28;20187;-76
2020/12/30 06:26:26;;;;;;;1.17;0.90;;;0.20;99.90;;;;;;5036886;28;20214;-77
2020/12/30 06:28:54;;;;;;;2.03;0.97;;;0.20;99.90;;;;;;5038359;28;20644;-76
2020/12/30 06:31:20;;;;;;;0.93;0.70;;;0.20;99.90;;;;;;5037780;28;20183;-76
2020/12/30 06:33:47;;;;;;;0.77;0.77;;;0.20;99.90;;;;;;5037945;28;20266;-77
2020/12/30 06:36:23;;;;;;;0.80;0.70;;;0.30;99.90;;;;;;5037286;28;20210;-77
2020/12/30 06:38:48;;;;;;;0.90;0.90;;;0.40;99.90;;;;;;5037656;28;20255;-77
2020/12/30 06:41:14;;;;;;;0.83;0.80;;;0.40;99.90;;;;;;5052779;28;20805;-76
2020/12/30 06:43:43;;;;;;;0.73;0.60;;;0.30;99.90;;;;;;5036513;28;20897;-77
2020/12/30 06:46:15;;;;;;;0.90;0.83;;;0.20;99.90;;;;;;5035593;28;20212;-77
2020/12/30 06:49:03;;;;;;;0.67;0.67;;;0.30;99.90;;;;;;5037932;28;20191;-76
2020/12/30 06:51:38;;;;;;;0.80;0.80;;;0.30;99.90;;;;;;5036364;28;20197;-77
2020/12/30 06:54:05;;;;;;;1.43;0.90;;;0.30;99.90;;;;;;5037020;28;20240;-77
2020/12/30 06:56:40;;;;;;;1.07;0.97;;;0.30;99.90;;;;;;5038031;28;20206;-77
2020/12/30 06:59:07;;;;;;;0.40;0.40;;;0.30;99.90;;;;;;5037485;28;20598;-76
2020/12/30 07:01:59;;;;;;;1.67;0.90;;;0.50;99.90;;;;;;5051983;28;20245;-77
2020/12/30 07:04:26;;;;;;;0.47;0.47;;;0.50;99.90;;;;;;5036684;28;20191;-75
2020/12/30 07:06:55;;;;;;;1.10;1.00;;;0.50;99.90;;;;;;5037030;28;20850;-77
2020/12/30 07:09:47;;;;;;;1.10;1.00;;;0.40;99.90;;;;;;5036581;28;20187;-75
2020/12/30 07:12:13;;;;;;;0.87;0.77;;;0.30;99.90;;;;;;5024266;28;20249;-77
2020/12/30 07:14:39;;;;;;;1.57;1.27;;;0.30;99.90;;;;;;5036449;28;20205;-77
2020/12/30 07:17:06;;;;;;;0.73;0.73;;;0.20;99.90;;;;;;5037494;28;20570;-78
2020/12/30 07:19:34;;;;;;;0.70;0.60;;;0.30;99.90;;;;;;5034718;28;20189;-76
2020/12/30 07:22:06;;;;;;;1.67;1.37;;;0.20;99.90;;;;;;5036168;28;20182;-77
2020/12/30 07:24:53;;;;;;;0.83;0.83;;;0.20;99.90;;;;;;5038437;28;20735;-77
2020/12/30 07:27:20;;;;;;;0.60;0.60;;;0.40;99.90;;;;;;5035542;28;20190;-77
2020/12/30 07:29:48;;;;;;;0.50;0.50;;;0.40;99.90;;;;;;5035832;28;21017;-77
2020/12/30 07:32:15;;;;;;;0.80;0.80;;;0.40;99.90;;;;;;5037528;28;20183;-77
2020/12/30 07:34:41;;;;;;;0.70;0.70;;;0.50;99.90;;;;;;5050812;28;20189;-77
2020/12/30 07:37:08;;;;;;;0.83;0.83;;;0.40;99.90;;;;;;5036304;28;20741;-77
2020/12/30 07:39:39;;;;;;;1.20;0.90;;;0.40;99.90;;;;;;5034382;28;20610;-76
2020/12/30 07:42:10;;;;;;;1.13;0.70;;;0.40;99.90;;;;;;5036149;28;20194;-76
2020/12/30 07:44:52;;;;;;;1.37;0.90;;;0.50;99.90;;;;;;5036498;28;20218;-76
2020/12/30 07:47:18;;;;;;;0.80;0.60;;;0.60;99.90;;;;;;5033210;28;20190;-76
2020/12/30 07:49:44;;;;;;;1.23;1.13;;;0.60;99.90;;;;;;5031618;28;20208;-76
2020/12/30 07:52:10;;;;;;;1.10;1.00;;;0.70;99.90;;;;;;5034714;28;20182;-77
2020/12/30 07:54:37;;;;;;;1.07;1.03;;;0.60;99.90;;;;;;5034552;28;20327;-77
2020/12/30 07:57:12;;;;;;;0.80;0.80;;;0.70;99.90;;;;;;5033202;28;20793;-77
2020/12/30 07:59:39;;;;;;;1.50;1.40;;;0.70;99.90;;;;;;5034172;28;20261;-76
2020/12/30 08:02:07;;;;;;;1.03;0.83;;;0.70;99.90;;;;;;5034443;28;20182;-77
2020/12/30 08:04:37;;;;;;;1.37;1.27;;;0.70;99.90;;;;;;5036160;28;20273;-77
2020/12/30 08:07:07;;;;;;;0.80;0.80;;;0.70;99.90;;;;;;5033584;28;20190;-77
2020/12/30 08:09:35;;;;;;;1.33;1.03;;;0.70;99.90;;;;;;5026055;28;20225;-77
2020/12/30 08:12:07;;;;;;;2.73;1.77;;;0.70;99.90;;;;;;5034092;28;20592;-77
2020/12/30 08:14:34;;;;;;;1.30;1.00;;;0.70;99.90;;;;;;5035288;28;20187;-75
2020/12/30 08:17:07;;;;;;;1.03;0.93;;;0.60;99.90;;;;;;5024321;28;20215;-77
2020/12/30 08:19:50;;;;;;;1.33;1.03;;;0.60;99.90;;;;;;5034844;28;20163;-77
2020/12/30 08:22:20;;;;;;;0.83;0.83;;;0.50;99.90;;;;;;5033027;28;20186;-76
2020/12/30 08:24:51;;;;;;;1.00;0.90;;;0.50;99.90;;;;;;5028683;28;20233;-79
2020/12/30 08:27:21;;;;;;;2.37;1.97;;;0.50;99.90;;;;;;5033394;28;20660;-76
2020/12/30 08:29:47;;;;;;;1.43;1.33;;;0.60;99.90;;;;;;5031777;28;20208;-77
2020/12/30 08:32:22;;;;;;;2.90;2.50;;;0.50;99.90;;;;;;5034159;28;20213;-73
2020/12/30 08:35:09;;;;;;;2.50;1.60;;;0.60;99.90;;;;;;5034547;28;20202;-77
2020/12/30 08:37:46;;;;;;;1.50;1.30;;;0.60;99.90;;;;;;5032193;28;20206;-77
2020/12/30 08:40:17;;;;;;;1.77;1.67;;;0.70;99.90;;;;;;5032411;28;20644;-77
2020/12/30 08:42:52;;;;;;;2.57;2.07;;;0.70;99.90;;;;;;5046144;28;20230;-77
2020/12/30 08:45:35;;;;;;;2.70;1.77;;;0.80;99.90;;;;;;5032031;28;20244;-77
2020/12/30 08:48:13;;;;;;;1.20;1.10;;;0.90;99.90;;;;;;5030663;28;20185;-77
2020/12/30 08:50:38;;;;;;;1.17;1.00;;;1.00;99.90;;;;;;5031271;28;20202;-77
2020/12/30 08:53:04;;;;;;;1.73;1.47;;;1.00;99.90;;;;;;5030109;28;20229;-77
2020/12/30 08:55:30;;;;;;;1.20;1.10;;;1.10;99.90;;;;;;5030299;28;20337;-77
2020/12/30 08:57:57;;;;;;;0.90;0.90;;;1.30;99.90;;;;;;5046939;28;20555;-77
2020/12/30 09:00:24;;;;;;;1.80;1.43;;;1.40;99.90;;;;;;5032136;28;20196;-77
2020/12/30 09:02:52;;;;;;;1.20;1.10;;;1.50;99.90;;;;;;5031660;28;20220;-77
2020/12/30 09:05:30;;;;;;;0.83;0.83;;;1.60;99.90;;;;;;5033082;28;20249;-77
2020/12/30 09:08:15;;;;;;;0.70;0.70;;;1.70;99.90;;;;;;5030111;28;20183;-77
2020/12/30 09:10:42;;;;;;;0.87;0.77;;;1.70;99.90;;;;;;5032372;28;20182;-76
2020/12/30 09:13:14;;;;;;;1.10;1.00;;;1.70;99.90;;;;;;5033449;28;20609;-77
2020/12/30 09:15:40;;;;;;;1.60;1.00;;;1.60;99.90;;;;;;5028101;28;20249;-77
2020/12/30 09:18:06;;;;;;;2.73;1.40;;;1.50;99.90;;;;;;5032737;28;20189;-75
2020/12/30 09:20:33;;;;;;;17.20;8.13;;;1.50;99.90;;;;;;5032203;28;20189;-76
2020/12/30 09:23:03;;;;;;;20.43;10.10;;;1.50;99.90;;;;;;5033805;28;20178;-76
2020/12/30 09:25:31;;;;;;;8.77;4.80;;;1.60;99.90;;;;;;5031191;28;20276;-76
2020/12/30 09:27:57;;;;;;;4.93;3.23;;;1.60;99.90;;;;;;5033054;28;20187;-77
2020/12/30 09:30:28;;;;;;;4.27;2.90;;;1.60;99.90;;;;;;5032822;28;20463;-76
2020/12/30 09:32:55;;;;;;;1.80;1.30;;;1.70;99.90;;;;;;5030211;28;20175;-76
2020/12/30 09:35:40;;;;;;;3.10;2.33;;;1.70;99.90;;;;;;5030025;28;20211;-77
2020/12/30 09:38:05;;;;;;;10.57;5.10;;;1.70;99.90;;;;;;5032211;28;20802;-76
2020/12/30 09:40:39;;;;;;;12.30;7.90;;;1.60;99.90;;;;;;5031192;28;20186;-77
2020/12/30 09:43:09;;;;;;;10.17;6.70;;;1.60;99.90;;;;;;5033648;28;20186;-77
2020/12/30 09:45:34;;;;;;;9.43;5.33;;;1.50;99.90;;;;;;5046729;28;20211;-77
2020/12/30 09:48:13;;;;;;;5.07;3.93;;;1.50;99.90;;;;;;5031654;28;20248;-76
2020/12/30 09:50:40;;;;;;;7.07;3.83;;;1.40;99.90;;;;;;5033639;28;20824;-76
2020/12/30 09:53:06;;;;;;;7.03;4.73;;;1.30;99.90;;;;;;5030519;28;20191;-77
2020/12/30 09:55:32;;;;;;;10.47;5.03;;;1.20;99.90;;;;;;5032609;28;20233;-77
2020/12/30 09:57:57;;;;;;;5.23;3.37;;;1.20;99.90;;;;;;5032737;28;20531;-77
2020/12/30 10:00:23;;;;;;;4.13;2.67;;;1.10;99.90;;;;;;5031781;28;20223;-77
2020/12/30 10:02:49;;;;;;;2.60;2.00;;;1.20;99.90;;;;;;5032568;28;20190;-77
2020/12/30 10:05:15;;;;;;;3.70;1.97;;;1.10;99.90;;;;;;5031888;28;20618;-76
2020/12/30 10:07:40;;;;;;;1.97;1.50;;;1.10;99.90;;;;;;5029866;28;20199;-76
2020/12/30 10:10:06;;;;;;;1.47;1.30;;;1.10;99.90;;;;;;5032606;28;20240;-76
2020/12/30 10:12:34;;;;;;;1.40;1.30;;;1.20;99.90;;;;;;5032706;28;20232;-77
2020/12/30 10:14:59;;;;;;;1.70;1.30;;;1.20;99.90;;;;;;5030626;28;20218;-72
2020/12/30 10:17:25;;;;;;;1.17;1.07;;;1.20;99.90;;;;;;5032769;28;20198;-76
2020/12/30 10:19:50;;;;;;;1.63;1.17;;;1.20;99.90;;;;;;5033680;28;20193;-76
2020/12/30 10:22:16;;;;;;;1.40;1.20;;;1.20;99.90;;;;;;5031992;28;20229;-76
2020/12/30 10:24:44;;;;;;;1.00;1.00;;;1.30;99.90;;;;;;5037139;28;20186;-77
2020/12/30 10:27:11;;;;;;;1.40;1.30;;;1.30;99.90;;;;;;5033928;28;20201;-77
2020/12/30 10:29:37;;;;;;;1.93;1.30;;;1.40;99.90;;;;;;5026728;28;20221;-77
2020/12/30 10:32:02;;;;;;;2.43;1.40;;;1.40;99.90;;;;;;5036282;28;20560;-77
2020/12/30 10:34:28;;;;;;;3.07;1.77;;;1.50;99.90;;;;;;5050603;28;20408;-77
2020/12/30 10:36:54;;;;;;;1.23;1.13;;;1.60;99.90;;;;;;5034452;28;20537;-77
2020/12/30 10:39:19;;;;;;;1.17;0.90;;;1.70;99.90;;;;;;5035463;28;20218;-77
2020/12/30 10:41:45;;;;;;;1.00;0.90;;;1.80;99.90;;;;;;5036077;28;20233;-77
2020/12/30 10:44:11;;;;;;;1.40;1.00;;;1.90;99.90;;;;;;5035383;28;20189;-77
2020/12/30 10:46:37;;;;;;;2.67;1.23;;;2.10;99.90;;;;;;5033301;28;20268;-78
2020/12/30 10:49:02;;;;;;;1.27;1.20;;;2.20;99.90;;;;;;5034474;28;20194;-77
2020/12/30 10:51:28;;;;;;;2.80;2.13;;;2.20;99.90;;;;;;5035806;28;20191;-77
2020/12/30 10:53:54;;;;;;;1.83;1.67;;;2.30;99.90;;;;;;5036840;28;20197;-76
2020/12/30 10:56:19;;;;;;;1.40;1.27;;;2.40;99.90;;;;;;5035618;28;20269;-76
2020/12/30 10:58:45;;;;;;;1.33;1.23;;;2.40;99.90;;;;;;5034560;28;20604;-74
2020/12/30 11:01:12;;;;;;;1.77;1.67;;;2.50;99.90;;;;;;5029826;28;20232;-76
2020/12/30 11:03:38;;;;;;;1.30;1.00;;;2.60;99.90;;;;;;5033878;28;20185;-76
2020/12/30 11:06:05;;;;;;;1.10;1.00;;;2.70;99.90;;;;;;5030071;28;20215;-73
2020/12/30 11:08:31;;;;;;;1.70;1.60;;;2.70;99.90;;;;;;5033090;28;21094;-76
2020/12/30 11:11:02;;;;;;;1.37;1.27;;;2.70;99.90;;;;;;5031542;28;20194;-76
2020/12/30 11:13:27;;;;;;;1.70;1.50;;;2.70;99.90;;;;;;5035280;28;20190;-76
2020/12/30 11:15:53;;;;;;;2.57;1.63;;;2.70;99.90;;;;;;5033227;28;20217;-75
2020/12/30 11:18:20;;;;;;;1.97;1.70;;;2.70;99.90;;;;;;5032900;28;20241;-76
2020/12/30 11:20:46;;;;;;;1.73;1.23;;;2.80;99.90;;;;;;5034828;28;20191;-76
2020/12/30 11:23:12;;;;;;;1.37;1.27;;;2.80;99.90;;;;;;5031650;28;20999;-76
2020/12/30 11:25:40;;;;;;;1.60;1.50;;;2.80;99.90;;;;;;5031502;28;20280;-76
2020/12/30 11:28:06;;;;;;;1.17;1.07;;;2.90;99.90;;;;;;5034068;28;21193;-76
2020/12/30 11:30:31;;;;;;;1.67;1.37;;;3.00;99.90;;;;;;5035661;28;20182;-76
2020/12/30 11:32:57;;;;;;;2.63;1.97;;;3.10;99.90;;;;;;5033554;28;20217;-76
2020/12/30 11:35:26;;;;;;;3.03;2.33;;;3.20;99.90;;;;;;5030822;28;20217;-76
2020/12/30 11:37:52;;;;;;;1.93;1.80;;;3.20;99.90;;;;;;5033462;28;20201;-76
2020/12/30 11:40:18;;;;;;;1.93;1.37;;;3.20;99.90;;;;;;5032595;28;20190;-76
2020/12/30 11:42:44;;;;;;;1.30;1.20;;;3.40;99.90;;;;;;5029683;28;20190;-76
2020/12/30 11:45:10;;;;;;;1.60;1.50;;;3.40;99.90;;;;;;5029333;28;20215;-75
2020/12/30 11:47:35;;;;;;;1.47;1.37;;;3.40;99.90;;;;;;5029132;28;20240;-75
2020/12/30 11:50:01;;;;;;;2.13;1.70;;;3.40;99.90;;;;;;5030934;28;20187;-75
2020/12/30 11:52:26;;;;;;;1.17;1.07;;;3.30;99.90;;;;;;5032239;28;20195;-75
2020/12/30 11:54:52;;;;;;;3.03;2.23;;;3.20;99.90;;;;;;5032148;28;20222;-76
2020/12/30 11:57:18;;;;;;;1.57;1.27;;;3.10;99.90;;;;;;5031837;28;20201;-75
2020/12/30 11:59:43;;;;;;;1.97;1.67;;;3.00;99.90;;;;;;5030114;28;20198;-76
2020/12/30 12:02:09;;;;;;;2.23;2.03;;;2.90;99.90;;;;;;5032330;28;20293;-75
2020/12/30 12:04:35;;;;;;;1.50;1.40;;;2.90;99.90;;;;;;5030243;28;20190;-76
2020/12/30 12:07:01;;;;;;;1.30;1.20;;;2.90;99.90;;;;;;5030513;28;20200;-75
2020/12/30 12:09:27;;;;;;;1.60;1.50;;;2.90;99.90;;;;;;5033001;28;20191;-75
2020/12/30 12:11:54;;;;;;;1.27;1.17;;;2.90;99.90;;;;;;5031209;28;20186;-75
2020/12/30 12:14:20;;;;;;;1.30;1.20;;;3.00;99.90;;;;;;5027745;28;20191;-75
2020/12/30 12:16:55;;;;;;;1.30;1.20;;;3.10;99.90;;;;;;5030109;28;20225;-75
2020/12/30 12:19:22;;;;;;;1.57;1.23;;;3.10;99.90;;;;;;5030440;28;20235;-75
2020/12/30 12:21:49;;;;;;;1.93;1.73;;;3.20;99.90;;;;;;5030515;28;20198;-75
2020/12/30 12:24:15;;;;;;;1.30;1.20;;;3.30;99.90;;;;;;5030430;28;20190;-75
2020/12/30 12:26:41;;;;;;;2.03;1.83;;;3.30;99.90;;;;;;5029533;28;20210;-75
2020/12/30 12:29:19;;;;;;;1.60;1.23;;;3.50;99.90;;;;;;5030825;28;20186;-76
2020/12/30 12:31:44;;;;;;;1.27;1.17;;;3.60;99.90;;;;;;5030093;28;20186;-76
2020/12/30 12:34:10;;;;;;;1.60;1.33;;;3.70;99.90;;;;;;5027334;28;20620;-76
2020/12/30 12:36:35;;;;;;;1.57;1.23;;;3.70;99.90;;;;;;5030569;28;20276;-76
2020/12/30 12:39:02;;;;;;;2.27;1.20;;;3.70;99.90;;;;;;5030915;28;20198;-76
2020/12/30 12:41:28;;;;;;;1.57;1.23;;;3.70;99.90;;;;;;5029977;28;20194;-75
2020/12/30 12:43:53;;;;;;;1.30;1.20;;;3.80;99.90;;;;;;5046467;28;20268;-74
2020/12/30 12:46:19;;;;;;;1.20;1.10;;;3.90;99.90;;;;;;5032465;28;20281;-76
2020/12/30 12:48:45;;;;;;;1.87;1.40;;;3.90;99.90;;;;;;5030291;28;20186;-77
2020/12/30 12:51:11;;;;;;;1.57;1.47;;;4.00;99.90;;;;;;5029091;28;20221;-74
2020/12/30 12:53:37;;;;;;;2.80;0.67;;;3.90;99.90;;;;;;5031888;28;20190;-75
2020/12/30 12:56:03;;;;;;;1.17;1.10;;;3.90;99.90;;;;;;5044121;28;20233;-76
2020/12/30 12:58:33;;;;;;;2.77;1.53;;;3.90;99.90;;;;;;5032781;28;20210;-75